Capitol Logistics 233




KMIA
Miami International Airport
Miami, Florida
KTLH
Tallahassee International Airport
Tallahassee, Florida

Activity Log

Date Flight Route Aircraft Duration
01/31/2022 CPX233 WINCO2 WINCO CHRRI SMELZ PATOY JAWJA B752 1h 18m
08/23/2021 CPX3272 WINCO2 WINCO V521 RSW V7 CODYS SF34 1h 53m
04/11/2021 CPX3272 WINCO2 WINCO CHRRI SMELZ PATOY JAWJA SF34 1h 46m
03/31/2021 CPX3272 WINCO2 WINCO V97 HEVVN FEKBA SF34 1h 44m
06/08/2019 CPX672 WINCO2 WINCO CHRRI SMELZ PATOY JAWJA SF34 1h 38m

Route Details

Aircraft Information
Group: Narrowbodies
Types: B738,B752
Route Data
Demand: V
Distance: 350nm
Duration: 1h 39m
Recm'd Route: WINCO2 WINCO CHRRI SMELZ PATOY JAWJA
Origin Wx: KMIA 242153Z 11013KT 10SM SCT035 SCT250 29/20 A3001 RMK AO2 SLP162 T02940200 $
Dest. Wx: KTLH 242153Z 13014G17KT 10SM BKN044 BKN250 30/22 A2999 RMK SLP153 CB DSNT NW-N T03000222
Notes:

Financial History
Total Freight: 75,947lbs
Average Load: 15,189lbs/flt
Fuel Used: 15,929lbs
Avg. Fuel Used: 3,186lbs/flt
Fuel Expense: $10,099
Avg. Fuel Expense: $2,020
Avg. Fuel Cost: $0.90/lbs
Total Gross Income: $147,889
Pilot Pay: $1,155
Total Expenses: $19,597
Total Revenue: $116,267
Average Revenue: $29,577.83